sensor_id;sensor_type;location;lat;lon;timestamp;pressure;altitude;pressure_sealevel;temperature
24586;BMP280;12743;52.262;6.172;2022-09-02T00:00:04;101512.28;;;16.26
24586;BMP280;12743;52.262;6.172;2022-09-02T00:02:33;101468.28;;;16.05
24586;BMP280;12743;52.262;6.172;2022-09-02T00:04:59;101482.72;;;16.24
24586;BMP280;12743;52.262;6.172;2022-09-02T00:07:24;101516.41;;;16.58
24586;BMP280;12743;52.262;6.172;2022-09-02T00:09:50;101480.22;;;16.15
24586;BMP280;12743;52.262;6.172;2022-09-02T00:12:15;101445.66;;;15.92
24586;BMP280;12743;52.262;6.172;2022-09-02T00:14:41;101478.09;;;16.05
24586;BMP280;12743;52.262;6.172;2022-09-02T00:17:06;101437.34;;;16.09
24586;BMP280;12743;52.262;6.172;2022-09-02T00:19:32;101499.28;;;16.36
24586;BMP280;12743;52.262;6.172;2022-09-02T00:21:59;101499.44;;;16.43
24586;BMP280;12743;52.262;6.172;2022-09-02T00:24:25;101502.59;;;16.49
24586;BMP280;12743;52.262;6.172;2022-09-02T00:26:51;101493.69;;;16.41
24586;BMP280;12743;52.262;6.172;2022-09-02T00:29:17;101402.00;;;15.71
24586;BMP280;12743;52.262;6.172;2022-09-02T00:31:44;101454.47;;;15.81
24586;BMP280;12743;52.262;6.172;2022-09-02T00:34:10;101410.59;;;15.52
24586;BMP280;12743;52.262;6.172;2022-09-02T00:36:36;101480.75;;;16.05
24586;BMP280;12743;52.262;6.172;2022-09-02T00:39:03;101467.25;;;15.94
24586;BMP280;12743;52.262;6.172;2022-09-02T00:41:29;101451.03;;;15.80
24586;BMP280;12743;52.262;6.172;2022-09-02T00:44:03;101425.66;;;15.79
24586;BMP280;12743;52.262;6.172;2022-09-02T00:46:31;101477.75;;;16.22
24586;BMP280;12743;52.262;6.172;2022-09-02T00:51:32;101460.94;;;15.83
24586;BMP280;12743;52.262;6.172;2022-09-02T00:53:59;101443.94;;;15.53
24586;BMP280;12743;52.262;6.172;2022-09-02T00:56:28;101476.41;;;15.66
24586;BMP280;12743;52.262;6.172;2022-09-02T00:58:55;101476.81;;;15.52
24586;BMP280;12743;52.262;6.172;2022-09-02T01:01:21;101478.13;;;15.74
24586;BMP280;12743;52.262;6.172;2022-09-02T01:03:47;101450.50;;;15.28
24586;BMP280;12743;52.262;6.172;2022-09-02T01:06:14;101434.38;;;15.49
24586;BMP280;12743;52.262;6.172;2022-09-02T01:08:45;101453.09;;;15.71
24586;BMP280;12743;52.262;6.172;2022-09-02T01:11:11;101388.72;;;15.08
24586;BMP280;12743;52.262;6.172;2022-09-02T01:13:41;101455.50;;;15.76
24586;BMP280;12743;52.262;6.172;2022-09-02T01:16:18;101465.44;;;15.52
24586;BMP280;12743;52.262;6.172;2022-09-02T01:18:49;101420.66;;;15.15
24586;BMP280;12743;52.262;6.172;2022-09-02T01:21:16;101421.00;;;15.14
24586;BMP280;12743;52.262;6.172;2022-09-02T01:23:43;101392.44;;;14.92
24586;BMP280;12743;52.262;6.172;2022-09-02T01:26:09;101419.66;;;15.36
24586;BMP280;12743;52.262;6.172;2022-09-02T01:28:35;101425.19;;;15.15
24586;BMP280;12743;52.262;6.172;2022-09-02T01:31:02;101455.91;;;15.63
24586;BMP280;12743;52.262;6.172;2022-09-02T01:33:28;101455.75;;;15.56
24586;BMP280;12743;52.262;6.172;2022-09-02T01:35:54;101393.97;;;14.93
24586;BMP280;12743;52.262;6.172;2022-09-02T01:38:21;101439.72;;;15.37
24586;BMP280;12743;52.262;6.172;2022-09-02T01:40:47;101423.56;;;15.26
24586;BMP280;12743;52.262;6.172;2022-09-02T01:43:23;101454.72;;;15.45
24586;BMP280;12743;52.262;6.172;2022-09-02T01:45:52;101445.38;;;15.51
24586;BMP280;12743;52.262;6.172;2022-09-02T01:48:19;101449.56;;;15.52
24586;BMP280;12743;52.262;6.172;2022-09-02T01:50:50;101446.31;;;15.43
24586;BMP280;12743;52.262;6.172;2022-09-02T01:53:16;101445.50;;;15.54
24586;BMP280;12743;52.262;6.172;2022-09-02T01:55:42;101419.56;;;15.32
24586;BMP280;12743;52.262;6.172;2022-09-02T01:58:08;101443.34;;;15.44
24586;BMP280;12743;52.262;6.172;2022-09-02T02:00:34;101394.91;;;15.00
24586;BMP280;12743;52.262;6.172;2022-09-02T02:03:00;101407.81;;;15.02
24586;BMP280;12743;52.262;6.172;2022-09-02T02:05:30;101355.94;;;14.70
24586;BMP280;12743;52.262;6.172;2022-09-02T02:07:56;101408.69;;;15.06
24586;BMP280;12743;52.262;6.172;2022-09-02T02:10:22;101425.91;;;15.27
24586;BMP280;12743;52.262;6.172;2022-09-02T02:12:48;101432.28;;;15.26
24586;BMP280;12743;52.262;6.172;2022-09-02T02:15:17;101442.47;;;15.40
24586;BMP280;12743;52.262;6.172;2022-09-02T02:17:44;101379.72;;;14.97
24586;BMP280;12743;52.262;6.172;2022-09-02T02:20:11;101430.34;;;15.39
24586;BMP280;12743;52.262;6.172;2022-09-02T02:22:41;101438.53;;;15.34
24586;BMP280;12743;52.262;6.172;2022-09-02T02:25:07;101363.97;;;14.89
24586;BMP280;12743;52.262;6.172;2022-09-02T02:27:33;101437.41;;;15.35
24586;BMP280;12743;52.262;6.172;2022-09-02T02:30:04;101422.72;;;15.22
24586;BMP280;12743;52.262;6.172;2022-09-02T02:32:31;101391.41;;;15.12
24586;BMP280;12743;52.262;6.172;2022-09-02T02:35:02;101418.47;;;15.33
24586;BMP280;12743;52.262;6.172;2022-09-02T02:37:29;101379.63;;;14.94
24586;BMP280;12743;52.262;6.172;2022-09-02T02:39:55;101390.31;;;14.97
24586;BMP280;12743;52.262;6.172;2022-09-02T02:42:22;101380.31;;;14.91
24586;BMP280;12743;52.262;6.172;2022-09-02T02:44:47;101356.31;;;14.84
24586;BMP280;12743;52.262;6.172;2022-09-02T02:47:13;101372.09;;;14.96
24586;BMP280;12743;52.262;6.172;2022-09-02T02:49:41;101316.97;;;14.55
24586;BMP280;12743;52.262;6.172;2022-09-02T02:52:08;101371.50;;;14.87
24586;BMP280;12743;52.262;6.172;2022-09-02T02:54:33;101418.25;;;15.10
24586;BMP280;12743;52.262;6.172;2022-09-02T02:56:59;101436.56;;;15.31
24586;BMP280;12743;52.262;6.172;2022-09-02T02:59:25;101416.28;;;15.07
24586;BMP280;12743;52.262;6.172;2022-09-02T03:01:51;101371.06;;;14.85
24586;BMP280;12743;52.262;6.172;2022-09-02T03:04:17;101428.34;;;15.20
24586;BMP280;12743;52.262;6.172;2022-09-02T03:06:43;101355.41;;;14.64
24586;BMP280;12743;52.262;6.172;2022-09-02T03:09:09;101359.38;;;14.86
24586;BMP280;12743;52.262;6.172;2022-09-02T03:11:36;101416.22;;;15.19
24586;BMP280;12743;52.262;6.172;2022-09-02T03:14:02;101399.63;;;15.07
24586;BMP280;12743;52.262;6.172;2022-09-02T03:16:28;101390.81;;;15.03
24586;BMP280;12743;52.262;6.172;2022-09-02T03:18:53;101378.19;;;15.12
24586;BMP280;12743;52.262;6.172;2022-09-02T03:21:19;101346.56;;;14.72
24586;BMP280;12743;52.262;6.172;2022-09-02T03:23:45;101424.75;;;15.28
24586;BMP280;12743;52.262;6.172;2022-09-02T03:26:14;101391.53;;;15.00
24586;BMP280;12743;52.262;6.172;2022-09-02T03:28:41;101375.72;;;14.88
24586;BMP280;12743;52.262;6.172;2022-09-02T03:31:16;101419.41;;;15.25
24586;BMP280;12743;52.262;6.172;2022-09-02T03:33:41;101380.31;;;14.91
24586;BMP280;12743;52.262;6.172;2022-09-02T03:36:07;101335.13;;;14.56
24586;BMP280;12743;52.262;6.172;2022-09-02T03:38:34;101391.28;;;15.05
24586;BMP280;12743;52.262;6.172;2022-09-02T03:41:01;101409.81;;;15.20
24586;BMP280;12743;52.262;6.172;2022-09-02T03:43:27;101294.28;;;14.26
24586;BMP280;12743;52.262;6.172;2022-09-02T03:45:53;101348.34;;;14.68
24586;BMP280;12743;52.262;6.172;2022-09-02T03:48:19;101379.47;;;15.02
24586;BMP280;12743;52.262;6.172;2022-09-02T03:50:47;101324.75;;;14.75
24586;BMP280;12743;52.262;6.172;2022-09-02T03:53:17;101391.31;;;15.20
24586;BMP280;12743;52.262;6.172;2022-09-02T03:55:43;101374.28;;;15.06
24586;BMP280;12743;52.262;6.172;2022-09-02T03:58:11;101371.00;;;14.97
24586;BMP280;12743;52.262;6.172;2022-09-02T04:00:38;101362.84;;;15.02
24586;BMP280;12743;52.262;6.172;2022-09-02T04:03:04;101402.16;;;15.31
24586;BMP280;12743;52.262;6.172;2022-09-02T04:05:31;101368.78;;;14.99
24586;BMP280;12743;52.262;6.172;2022-09-02T04:07:58;101316.53;;;14.65
24586;BMP280;12743;52.262;6.172;2022-09-02T04:10:25;101363.41;;;14.95
24586;BMP280;12743;52.262;6.172;2022-09-02T04:12:51;101351.50;;;15.01
24586;BMP280;12743;52.262;6.172;2022-09-02T04:15:17;101324.81;;;14.79
24586;BMP280;12743;52.262;6.172;2022-09-02T04:17:44;101372.31;;;15.03
24586;BMP280;12743;52.262;6.172;2022-09-02T04:20:13;101317.81;;;14.71
24586;BMP280;12743;52.262;6.172;2022-09-02T04:22:39;101334.47;;;14.87
24586;BMP280;12743;52.262;6.172;2022-09-02T04:25:06;101367.56;;;15.08
24586;BMP280;12743;52.262;6.172;2022-09-02T04:27:33;101329.00;;;14.80
24586;BMP280;12743;52.262;6.172;2022-09-02T04:29:59;101303.09;;;14.58
24586;BMP280;12743;52.262;6.172;2022-09-02T04:32:25;101353.00;;;14.87
24586;BMP280;12743;52.262;6.172;2022-09-02T04:34:51;101378.84;;;15.21
24586;BMP280;12743;52.262;6.172;2022-09-02T04:37:18;101337.38;;;14.82
24586;BMP280;12743;52.262;6.172;2022-09-02T04:39:44;101327.69;;;14.74
24586;BMP280;12743;52.262;6.172;2022-09-02T04:42:09;101379.16;;;15.19
24586;BMP280;12743;52.262;6.172;2022-09-02T04:44:35;101357.78;;;14.97
24586;BMP280;12743;52.262;6.172;2022-09-02T04:47:01;101353.34;;;15.01
24586;BMP280;12743;52.262;6.172;2022-09-02T04:49:27;101340.63;;;14.91
24586;BMP280;12743;52.262;6.172;2022-09-02T04:51:56;101338.84;;;14.95
24586;BMP280;12743;52.262;6.172;2022-09-02T04:54:23;101353.47;;;15.04
24586;BMP280;12743;52.262;6.172;2022-09-02T04:56:50;101377.47;;;15.11
24586;BMP280;12743;52.262;6.172;2022-09-02T04:59:17;101376.19;;;15.21
24586;BMP280;12743;52.262;6.172;2022-09-02T05:01:51;101378.66;;;15.14
24586;BMP280;12743;52.262;6.172;2022-09-02T05:04:23;101359.84;;;14.88
24586;BMP280;12743;52.262;6.172;2022-09-02T05:06:49;101379.44;;;15.14
24586;BMP280;12743;52.262;6.172;2022-09-02T05:09:18;101352.75;;;14.92
24586;BMP280;12743;52.262;6.172;2022-09-02T05:11:49;101380.97;;;15.31
24586;BMP280;12743;52.262;6.172;2022-09-02T05:14:18;101335.41;;;14.79
24586;BMP280;12743;52.262;6.172;2022-09-02T05:16:45;101374.44;;;14.97
24586;BMP280;12743;52.262;6.172;2022-09-02T05:19:13;101378.84;;;15.21
24586;BMP280;12743;52.262;6.172;2022-09-02T05:21:43;101350.63;;;14.97
24586;BMP280;12743;52.262;6.172;2022-09-02T05:24:16;101358.06;;;15.07
24586;BMP280;12743;52.262;6.172;2022-09-02T05:26:42;101355.47;;;14.95
24586;BMP280;12743;52.262;6.172;2022-09-02T05:29:10;101371.50;;;15.14
24586;BMP280;12743;52.262;6.172;2022-09-02T05:31:38;101330.75;;;14.88
24586;BMP280;12743;52.262;6.172;2022-09-02T05:34:06;101348.19;;;15.04
24586;BMP280;12743;52.262;6.172;2022-09-02T05:36:32;101316.13;;;14.78
24586;BMP280;12743;52.262;6.172;2022-09-02T05:38:59;101352.19;;;15.14
24586;BMP280;12743;52.262;6.172;2022-09-02T05:41:25;101361.69;;;15.15
24586;BMP280;12743;52.262;6.172;2022-09-02T05:43:57;101378.56;;;15.26
24586;BMP280;12743;52.262;6.172;2022-09-02T05:46:24;101306.53;;;14.74
24586;BMP280;12743;52.262;6.172;2022-09-02T05:48:52;101201.97;;;14.17
24586;BMP280;12743;52.262;6.172;2022-09-02T05:51:45;101351.91;;;15.19
24586;BMP280;12743;52.262;6.172;2022-09-02T05:54:18;101306.47;;;14.86
24586;BMP280;12743;52.262;6.172;2022-09-02T05:56:46;101379.63;;;15.21
24586;BMP280;12743;52.262;6.172;2022-09-02T05:59:13;101328.19;;;14.91
24586;BMP280;12743;52.262;6.172;2022-09-02T06:01:39;101357.22;;;15.19
24586;BMP280;12743;52.262;6.172;2022-09-02T06:04:05;101350.31;;;15.14
24586;BMP280;12743;52.262;6.172;2022-09-02T06:06:32;101338.00;;;15.06
24586;BMP280;12743;52.262;6.172;2022-09-02T06:08:58;101376.53;;;15.35
24586;BMP280;12743;52.262;6.172;2022-09-02T06:11:25;101375.09;;;15.53
24586;BMP280;12743;52.262;6.172;2022-09-02T06:13:51;101332.56;;;15.15
24586;BMP280;12743;52.262;6.172;2022-09-02T06:16:21;101348.88;;;15.32
24586;BMP280;12743;52.262;6.172;2022-09-02T06:18:49;101373.66;;;15.56
24586;BMP280;12743;52.262;6.172;2022-09-02T06:21:21;101329.56;;;15.32
24586;BMP280;12743;52.262;6.172;2022-09-02T06:23:49;101335.03;;;15.39
24586;BMP280;12743;52.262;6.172;2022-09-02T06:26:16;101374.28;;;15.68
24586;BMP280;12743;52.262;6.172;2022-09-02T06:28:43;101369.00;;;15.68
24586;BMP280;12743;52.262;6.172;2022-09-02T06:31:15;101379.44;;;15.77
24586;BMP280;12743;52.262;6.172;2022-09-02T06:33:43;101368.66;;;15.85
24586;BMP280;12743;52.262;6.172;2022-09-02T06:36:12;101377.16;;;15.94
24586;BMP280;12743;52.262;6.172;2022-09-02T06:38:39;101370.00;;;15.95
24586;BMP280;12743;52.262;6.172;2022-09-02T06:41:06;101357.47;;;15.76
24586;BMP280;12743;52.262;6.172;2022-09-02T06:43:39;101320.00;;;15.59
24586;BMP280;12743;52.262;6.172;2022-09-02T06:46:22;101364.59;;;16.07
24586;BMP280;12743;52.262;6.172;2022-09-02T06:48:52;101370.38;;;16.12
24586;BMP280;12743;52.262;6.172;2022-09-02T06:51:30;101326.25;;;15.85
24586;BMP280;12743;52.262;6.172;2022-09-02T06:53:59;101351.84;;;16.12
24586;BMP280;12743;52.262;6.172;2022-09-02T06:56:28;101364.25;;;16.28
24586;BMP280;12743;52.262;6.172;2022-09-02T06:58:55;101353.88;;;16.19
24586;BMP280;12743;52.262;6.172;2022-09-02T07:01:33;101342.91;;;16.21
24586;BMP280;12743;52.262;6.172;2022-09-02T07:04:00;101323.78;;;16.11
24586;BMP280;12743;52.262;6.172;2022-09-02T07:06:47;101348.78;;;16.30
24586;BMP280;12743;52.262;6.172;2022-09-02T07:09:17;101331.34;;;16.29
24586;BMP280;12743;52.262;6.172;2022-09-02T07:11:42;101360.56;;;16.51
24586;BMP280;12743;52.262;6.172;2022-09-02T07:14:14;101336.63;;;16.48
24586;BMP280;12743;52.262;6.172;2022-09-02T07:16:46;101368.03;;;16.65
24586;BMP280;12743;52.262;6.172;2022-09-02T07:19:12;101345.97;;;16.61
24586;BMP280;12743;52.262;6.172;2022-09-02T07:21:39;101357.63;;;16.75
24586;BMP280;12743;52.262;6.172;2022-09-02T07:24:07;101348.94;;;16.78
24586;BMP280;12743;52.262;6.172;2022-09-02T07:26:33;101370.06;;;16.94
24586;BMP280;12743;52.262;6.172;2022-09-02T07:29:01;101360.09;;;16.87
24586;BMP280;12743;52.262;6.172;2022-09-02T07:31:26;101348.03;;;16.90
24586;BMP280;12743;52.262;6.172;2022-09-02T07:33:54;101364.19;;;17.04
24586;BMP280;12743;52.262;6.172;2022-09-02T07:36:27;101350.44;;;16.98
24586;BMP280;12743;52.262;6.172;2022-09-02T07:38:54;101336.41;;;16.98
24586;BMP280;12743;52.262;6.172;2022-09-02T07:41:22;101329.97;;;16.99
24586;BMP280;12743;52.262;6.172;2022-09-02T07:43:48;101360.19;;;17.36
24586;BMP280;12743;52.262;6.172;2022-09-02T07:46:14;101350.69;;;17.35
24586;BMP280;12743;52.262;6.172;2022-09-02T07:48:40;101341.91;;;17.31
24586;BMP280;12743;52.262;6.172;2022-09-02T07:51:06;101349.63;;;17.43
24586;BMP280;12743;52.262;6.172;2022-09-02T07:53:35;101335.13;;;17.37
24586;BMP280;12743;52.262;6.172;2022-09-02T07:56:02;101328.56;;;17.54
24586;BMP280;12743;52.262;6.172;2022-09-02T07:58:28;101366.75;;;17.98
24586;BMP280;12743;52.262;6.172;2022-09-02T08:00:54;101344.72;;;17.98
24586;BMP280;12743;52.262;6.172;2022-09-02T08:03:23;101332.31;;;18.09
24586;BMP280;12743;52.262;6.172;2022-09-02T08:05:52;101364.28;;;18.12
24586;BMP280;12743;52.262;6.172;2022-09-02T08:08:19;101355.22;;;18.17
24586;BMP280;12743;52.262;6.172;2022-09-02T08:10:47;101304.06;;;17.97
24586;BMP280;12743;52.262;6.172;2022-09-02T08:13:14;101353.09;;;18.33
24586;BMP280;12743;52.262;6.172;2022-09-02T08:15:40;101336.13;;;18.41
24586;BMP280;12743;52.262;6.172;2022-09-02T08:18:06;101313.59;;;18.31
24586;BMP280;12743;52.262;6.172;2022-09-02T08:20:32;101355.25;;;18.53
24586;BMP280;12743;52.262;6.172;2022-09-02T08:23:05;101336.03;;;18.70
24586;BMP280;12743;52.262;6.172;2022-09-02T08:25:33;101330.50;;;18.49
24586;BMP280;12743;52.262;6.172;2022-09-02T08:27:59;101244.97;;;18.47
24586;BMP280;12743;52.262;6.172;2022-09-02T08:30:25;101353.63;;;19.33
24586;BMP280;12743;52.262;6.172;2022-09-02T08:32:50;101342.28;;;19.39
24586;BMP280;12743;52.262;6.172;2022-09-02T08:35:15;101295.16;;;18.96
24586;BMP280;12743;52.262;6.172;2022-09-02T08:37:41;101316.88;;;19.02
24586;BMP280;12743;52.262;6.172;2022-09-02T08:40:12;101339.09;;;19.20
24586;BMP280;12743;52.262;6.172;2022-09-02T08:42:45;101336.50;;;19.30
24586;BMP280;12743;52.262;6.172;2022-09-02T08:47:57;101309.63;;;19.56
24586;BMP280;12743;52.262;6.172;2022-09-02T08:50:27;101335.28;;;19.96
24586;BMP280;12743;52.262;6.172;2022-09-02T08:53:10;101334.28;;;20.39
24586;BMP280;12743;52.262;6.172;2022-09-02T08:55:45;101295.00;;;20.29
24586;BMP280;12743;52.262;6.172;2022-09-02T08:58:17;101315.22;;;20.55
24586;BMP280;12743;52.262;6.172;2022-09-02T09:00:45;101262.97;;;20.26
24586;BMP280;12743;52.262;6.172;2022-09-02T09:03:29;101241.28;;;20.17
24586;BMP280;12743;52.262;6.172;2022-09-02T09:06:05;101327.81;;;20.72
24586;BMP280;12743;52.262;6.172;2022-09-02T09:08:39;101323.97;;;21.19
24586;BMP280;12743;52.262;6.172;2022-09-02T09:11:19;101317.84;;;21.22
24586;BMP280;12743;52.262;6.172;2022-09-02T09:14:08;101329.13;;;21.71
24586;BMP280;12743;52.262;6.172;2022-09-02T09:19:49;101318.63;;;21.19
24586;BMP280;12743;52.262;6.172;2022-09-02T09:22:19;101307.75;;;21.68
24586;BMP280;12743;52.262;6.172;2022-09-02T09:24:49;101311.94;;;21.65
24586;BMP280;12743;52.262;6.172;2022-09-02T09:27:21;101283.03;;;21.36
24586;BMP280;12743;52.262;6.172;2022-09-02T09:29:50;101253.66;;;21.39
24586;BMP280;12743;52.262;6.172;2022-09-02T09:32:25;101301.44;;;22.03
24586;BMP280;12743;52.262;6.172;2022-09-02T09:39:58;101304.34;;;22.22
24586;BMP280;12743;52.262;6.172;2022-09-02T09:42:35;101280.47;;;21.98
24586;BMP280;12743;52.262;6.172;2022-09-02T09:45:17;101292.66;;;22.53
24586;BMP280;12743;52.262;6.172;2022-09-02T09:48:17;101298.09;;;22.43
24586;BMP280;12743;52.262;6.172;2022-09-02T09:50:48;101267.63;;;22.26
24586;BMP280;12743;52.262;6.172;2022-09-02T09:53:34;101288.28;;;22.73
24586;BMP280;12743;52.262;6.172;2022-09-02T09:56:02;101287.38;;;22.87
24586;BMP280;12743;52.262;6.172;2022-09-02T09:58:42;101281.94;;;22.90
24586;BMP280;12743;52.262;6.172;2022-09-02T10:03:47;101272.28;;;23.60
24586;BMP280;12743;52.262;6.172;2022-09-02T10:09:41;101218.59;;;23.07
24586;BMP280;12743;52.262;6.172;2022-09-02T10:11:54;101267.63;;;23.04
24586;BMP280;12743;52.262;6.172;2022-09-02T10:14:20;101249.03;;;22.90
24586;BMP280;12743;52.262;6.172;2022-09-02T10:17:02;101268.66;;;23.14
24586;BMP280;12743;52.262;6.172;2022-09-02T10:19:37;101257.72;;;23.01
24586;BMP280;12743;52.262;6.172;2022-09-02T10:22:12;101257.81;;;22.90
24586;BMP280;12743;52.262;6.172;2022-09-02T10:30:10;101258.94;;;23.83
24586;BMP280;12743;52.262;6.172;2022-09-02T10:57:25;101158.63;;;24.40
24586;BMP280;12743;52.262;6.172;2022-09-02T11:00:13;101203.09;;;24.41
24586;BMP280;12743;52.262;6.172;2022-09-02T11:02:54;101208.44;;;24.64
24586;BMP280;12743;52.262;6.172;2022-09-02T11:05:28;101237.06;;;24.90
24586;BMP280;12743;52.262;6.172;2022-09-02T11:08:05;101210.84;;;24.58
24586;BMP280;12743;52.262;6.172;2022-09-02T11:10:36;101150.03;;;24.29
24586;BMP280;12743;52.262;6.172;2022-09-02T11:16:15;101193.47;;;24.63
24586;BMP280;12743;52.262;6.172;2022-09-02T11:18:52;101222.81;;;24.73
24586;BMP280;12743;52.262;6.172;2022-09-02T11:24:14;101175.16;;;24.58
24586;BMP280;12743;52.262;6.172;2022-09-02T11:29:56;101199.03;;;24.72
24586;BMP280;12743;52.262;6.172;2022-09-02T11:32:29;101207.41;;;25.13
24586;BMP280;12743;52.262;6.172;2022-09-02T11:34:57;101156.63;;;24.63
24586;BMP280;12743;52.262;6.172;2022-09-02T11:37:33;101209.59;;;25.82
24586;BMP280;12743;52.262;6.172;2022-09-02T11:40:08;101204.94;;;25.99
24586;BMP280;12743;52.262;6.172;2022-09-02T11:48:48;101195.34;;;25.37
24586;BMP280;12743;52.262;6.172;2022-09-02T11:54:03;101098.16;;;24.71
24586;BMP280;12743;52.262;6.172;2022-09-02T11:56:35;101143.34;;;25.72
24586;BMP280;12743;52.262;6.172;2022-09-02T11:59:05;101149.59;;;25.98
24586;BMP280;12743;52.262;6.172;2022-09-02T12:01:39;101190.94;;;25.75
24586;BMP280;12743;52.262;6.172;2022-09-02T12:06:39;101141.31;;;25.76
24586;BMP280;12743;52.262;6.172;2022-09-02T12:15:12;101177.25;;;25.21
24586;BMP280;12743;52.262;6.172;2022-09-02T12:23:08;101164.59;;;25.02
24586;BMP280;12743;52.262;6.172;2022-09-02T12:28:22;101166.44;;;25.05
24586;BMP280;12743;52.262;6.172;2022-09-02T12:33:30;101162.84;;;25.12
24586;BMP280;12743;52.262;6.172;2022-09-02T12:35:56;101141.25;;;24.99
24586;BMP280;12743;52.262;6.172;2022-09-02T12:38:27;101147.31;;;25.19
24586;BMP280;12743;52.262;6.172;2022-09-02T12:43:47;101109.44;;;24.98
24586;BMP280;12743;52.262;6.172;2022-09-02T12:51:58;101119.50;;;25.10
24586;BMP280;12743;52.262;6.172;2022-09-02T12:54:34;101137.31;;;25.36
24586;BMP280;12743;52.262;6.172;2022-09-02T12:57:01;101147.94;;;25.27
24586;BMP280;12743;52.262;6.172;2022-09-02T12:59:30;101030.38;;;24.63
24586;BMP280;12743;52.262;6.172;2022-09-02T13:05:02;101134.78;;;25.13
24586;BMP280;12743;52.262;6.172;2022-09-02T13:13:21;101123.97;;;25.93
24586;BMP280;12743;52.262;6.172;2022-09-02T13:26:53;101089.69;;;25.20
24586;BMP280;12743;52.262;6.172;2022-09-02T13:29:43;101069.44;;;25.00
24586;BMP280;12743;52.262;6.172;2022-09-02T13:32:21;101109.94;;;25.25
24586;BMP280;12743;52.262;6.172;2022-09-02T13:34:50;101122.88;;;25.91
24586;BMP280;12743;52.262;6.172;2022-09-02T13:37:30;101027.75;;;25.81
24586;BMP280;12743;52.262;6.172;2022-09-02T13:39:57;101080.13;;;26.59
24586;BMP280;12743;52.262;6.172;2022-09-02T13:42:26;101096.50;;;26.39
24586;BMP280;12743;52.262;6.172;2022-09-02T13:45:15;101109.69;;;26.09
24586;BMP280;12743;52.262;6.172;2022-09-02T13:47:42;101081.22;;;25.67
24586;BMP280;12743;52.262;6.172;2022-09-02T13:50:10;101121.06;;;25.56
24586;BMP280;12743;52.262;6.172;2022-09-02T13:52:37;101123.25;;;25.77
24586;BMP280;12743;52.262;6.172;2022-09-02T13:55:04;101076.28;;;25.49
24586;BMP280;12743;52.262;6.172;2022-09-02T13:57:30;100988.28;;;25.21
24586;BMP280;12743;52.262;6.172;2022-09-02T13:59:56;101104.00;;;25.62
24586;BMP280;12743;52.262;6.172;2022-09-02T14:02:31;101069.22;;;25.39
24586;BMP280;12743;52.262;6.172;2022-09-02T14:05:03;101034.66;;;25.09
24586;BMP280;12743;52.262;6.172;2022-09-02T14:07:40;101073.28;;;25.47
24586;BMP280;12743;52.262;6.172;2022-09-02T14:10:10;101103.78;;;25.57
24586;BMP280;12743;52.262;6.172;2022-09-02T14:12:37;101053.59;;;25.50
24586;BMP280;12743;52.262;6.172;2022-09-02T14:15:06;101079.38;;;25.92
24586;BMP280;12743;52.262;6.172;2022-09-02T14:17:31;101049.84;;;25.89
24586;BMP280;12743;52.262;6.172;2022-09-02T14:22:40;101058.69;;;27.15
24586;BMP280;12743;52.262;6.172;2022-09-02T14:25:12;101063.38;;;26.14
24586;BMP280;12743;52.262;6.172;2022-09-02T14:27:39;101043.63;;;25.63
24586;BMP280;12743;52.262;6.172;2022-09-02T14:30:05;101041.63;;;26.21
24586;BMP280;12743;52.262;6.172;2022-09-02T14:32:34;101055.47;;;25.94
24586;BMP280;12743;52.262;6.172;2022-09-02T14:35:29;101075.44;;;27.44
24586;BMP280;12743;52.262;6.172;2022-09-02T14:37:56;101080.50;;;27.63
24586;BMP280;12743;52.262;6.172;2022-09-02T14:40:35;101013.63;;;27.89
24586;BMP280;12743;52.262;6.172;2022-09-02T14:43:02;101016.59;;;27.60
24586;BMP280;12743;52.262;6.172;2022-09-02T14:45:33;101055.06;;;27.52
24586;BMP280;12743;52.262;6.172;2022-09-02T14:48:01;101026.09;;;27.22
24586;BMP280;12743;52.262;6.172;2022-09-02T14:50:30;101052.47;;;28.22
24586;BMP280;12743;52.262;6.172;2022-09-02T14:53:05;101026.09;;;27.65
24586;BMP280;12743;52.262;6.172;2022-09-02T14:55:54;101061.81;;;27.99
24586;BMP280;12743;52.262;6.172;2022-09-02T14:58:22;101063.09;;;28.47
24586;BMP280;12743;52.262;6.172;2022-09-02T15:00:59;101011.16;;;28.97
24586;BMP280;12743;52.262;6.172;2022-09-02T15:03:26;101051.41;;;27.89
24586;BMP280;12743;52.262;6.172;2022-09-02T15:05:52;101051.94;;;27.32
24586;BMP280;12743;52.262;6.172;2022-09-02T15:08:18;101015.94;;;26.79
24586;BMP280;12743;52.262;6.172;2022-09-02T15:10:44;101042.44;;;26.93
24586;BMP280;12743;52.262;6.172;2022-09-02T15:13:11;101015.56;;;26.30
24586;BMP280;12743;52.262;6.172;2022-09-02T15:15:38;101018.25;;;26.30
24586;BMP280;12743;52.262;6.172;2022-09-02T15:18:07;101024.94;;;26.38
24586;BMP280;12743;52.262;6.172;2022-09-02T15:20:33;101006.94;;;26.23
24586;BMP280;12743;52.262;6.172;2022-09-02T15:23:00;101018.59;;;26.32
24586;BMP280;12743;52.262;6.172;2022-09-02T15:25:25;100996.59;;;26.21
24586;BMP280;12743;52.262;6.172;2022-09-02T15:27:50;101005.22;;;26.16
24586;BMP280;12743;52.262;6.172;2022-09-02T15:30:16;101001.72;;;25.91
24586;BMP280;12743;52.262;6.172;2022-09-02T15:32:42;101017.94;;;26.16
24586;BMP280;12743;52.262;6.172;2022-09-02T15:35:07;101005.81;;;25.95
24586;BMP280;12743;52.262;6.172;2022-09-02T15:37:34;100995.09;;;26.08
24586;BMP280;12743;52.262;6.172;2022-09-02T15:40:03;100992.06;;;26.06
24586;BMP280;12743;52.262;6.172;2022-09-02T15:42:35;100993.53;;;25.82
24586;BMP280;12743;52.262;6.172;2022-09-02T15:45:02;101003.34;;;25.88
24586;BMP280;12743;52.262;6.172;2022-09-02T15:47:28;100948.66;;;25.37
24586;BMP280;12743;52.262;6.172;2022-09-02T15:49:55;100979.28;;;25.69
24586;BMP280;12743;52.262;6.172;2022-09-02T15:52:22;100959.50;;;25.34
24586;BMP280;12743;52.262;6.172;2022-09-02T15:54:48;101000.97;;;25.49
24586;BMP280;12743;52.262;6.172;2022-09-02T15:57:13;100986.88;;;25.45
24586;BMP280;12743;52.262;6.172;2022-09-02T15:59:39;100992.75;;;25.40
24586;BMP280;12743;52.262;6.172;2022-09-02T16:02:06;100922.31;;;24.88
24586;BMP280;12743;52.262;6.172;2022-09-02T16:04:31;100983.81;;;25.30